Nellis Air Force Base
KLSV : now visible

Airfield :











YOU CAN JOIN US ON...

 
LOGIN :

Register | Disclaimer

   EN    FR    IT 

 









Legend :    VFR   Marginal VFR   IFR   Intensive IFR   Very Intensive IFR
Visi :
Ceiling :
>= 8 km
>= 3000ft
5 to 8 km
1000 to 3000 ft
1500m to 5 km
500 to 1000 ft
800 to 1500m
200 to 500 ft
< 800m
< 200 ft
Symbols :   Thunderstorms  Fog  Heavy snow  Heavy precipitations  Wind > 20 kt






- Airport Elevation : 1870 ft


KLSV - Nellis Air Force Base

CURRENT METAR :
  • 120458Z AUTO 04011KT 10SM CLR 17/M08 A3013 RMK AO2 SLP194 T01651079 $

EXPIRED METARs :
  • 120358Z AUTO 05009KT 10SM CLR 17/M07 A3011 RMK AO2 SLP188 T01731066 $
  • 120258Z AUTO 01008KT 10SM CLR 17/M05 A3010 RMK AO2 SLP187 T01701055 52011 $

TAF AMD TAF KLSV
Valid from the 12 at 03:00 until the 13 at 05:00 UTC


120340Z 1203/1305 05009KT 9999 SKC QNH3006INS
TEMPO 1203/1212 02015G25KT 520009
BECMG 1211/1212 VRB06KT 9999 FEW250 QNH3014INS TX25/1222Z TN07/1215Z



MET'MAP, your aeronautical weather chart ! - Copyright ORBIFLY December 2007 - Disclaimer

ORBIFLY MET'MAP TEAM :

Programming & Development : Alexandra Zaïnal
Concept & Development : Baudouin d'Aumeries
Co-Development & Prog : Marc-Olivier Méhu
Technical & hardware support : Manuel Goepfert

Contact : metmap@orbifly.com




SOURCES & CREDITS :

   NOAA       Earth
Advisory